sensor_id;sensor_type;location;lat;lon;timestamp;temperature;humidity
4175;DHT22;2101;48.290;14.382;2024-01-30T00:01:44;-1.10;99.90
4175;DHT22;2101;48.290;14.382;2024-01-30T00:04:10;-1.10;99.90
4175;DHT22;2101;48.290;14.382;2024-01-30T00:06:36;-1.20;99.90
4175;DHT22;2101;48.290;14.382;2024-01-30T00:09:02;-1.20;99.90
4175;DHT22;2101;48.290;14.382;2024-01-30T00:11:28;-1.10;99.90
4175;DHT22;2101;48.290;14.382;2024-01-30T00:13:54;-1.20;99.90
4175;DHT22;2101;48.290;14.382;2024-01-30T00:16:24;-1.20;99.90
4175;DHT22;2101;48.290;14.382;2024-01-30T00:18:53;-1.20;99.90
4175;DHT22;2101;48.290;14.382;2024-01-30T00:21:20;-1.20;99.90
4175;DHT22;2101;48.290;14.382;2024-01-30T00:23:46;-1.30;99.90
4175;DHT22;2101;48.290;14.382;2024-01-30T00:26:12;-1.30;99.90
4175;DHT22;2101;48.290;14.382;2024-01-30T00:28:38;-1.30;99.90
4175;DHT22;2101;48.290;14.382;2024-01-30T00:31:04;-1.40;99.90
4175;DHT22;2101;48.290;14.382;2024-01-30T00:33:30;-1.30;99.90
4175;DHT22;2101;48.290;14.382;2024-01-30T00:35:56;-1.30;99.90
4175;DHT22;2101;48.290;14.382;2024-01-30T00:38:22;-1.30;99.90
4175;DHT22;2101;48.290;14.382;2024-01-30T00:40:48;-1.30;99.90
4175;DHT22;2101;48.290;14.382;2024-01-30T00:43:15;-1.30;99.90
4175;DHT22;2101;48.290;14.382;2024-01-30T00:45:41;-1.30;99.90
4175;DHT22;2101;48.290;14.382;2024-01-30T00:48:07;-1.30;99.90
4175;DHT22;2101;48.290;14.382;2024-01-30T00:50:33;-1.40;99.90
4175;DHT22;2101;48.290;14.382;2024-01-30T00:52:59;-1.30;99.90
4175;DHT22;2101;48.290;14.382;2024-01-30T00:55:25;-1.30;99.90
4175;DHT22;2101;48.290;14.382;2024-01-30T00:57:50;-1.40;99.90
4175;DHT22;2101;48.290;14.382;2024-01-30T01:00:16;-1.40;99.90
4175;DHT22;2101;48.290;14.382;2024-01-30T01:02:43;-1.50;99.90
4175;DHT22;2101;48.290;14.382;2024-01-30T01:05:09;-1.50;99.90
4175;DHT22;2101;48.290;14.382;2024-01-30T01:07:35;-1.50;99.90
4175;DHT22;2101;48.290;14.382;2024-01-30T01:10:01;-1.60;99.90
4175;DHT22;2101;48.290;14.382;2024-01-30T01:12:28;-1.50;99.90
4175;DHT22;2101;48.290;14.382;2024-01-30T01:14:54;-1.60;99.90
4175;DHT22;2101;48.290;14.382;2024-01-30T01:17:20;-1.60;99.90
4175;DHT22;2101;48.290;14.382;2024-01-30T01:19:46;-1.60;99.90
4175;DHT22;2101;48.290;14.382;2024-01-30T01:22:11;-1.60;99.90
4175;DHT22;2101;48.290;14.382;2024-01-30T01:24:37;-1.60;99.90
4175;DHT22;2101;48.290;14.382;2024-01-30T01:27:03;-1.60;99.90
4175;DHT22;2101;48.290;14.382;2024-01-30T01:29:29;-1.60;99.90
4175;DHT22;2101;48.290;14.382;2024-01-30T01:31:55;-1.70;99.90
4175;DHT22;2101;48.290;14.382;2024-01-30T01:34:22;-1.80;99.90
4175;DHT22;2101;48.290;14.382;2024-01-30T01:36:49;-1.80;99.90
4175;DHT22;2101;48.290;14.382;2024-01-30T01:39:16;-1.80;99.90
4175;DHT22;2101;48.290;14.382;2024-01-30T01:41:42;-1.80;99.90
4175;DHT22;2101;48.290;14.382;2024-01-30T01:44:08;-1.80;99.90
4175;DHT22;2101;48.290;14.382;2024-01-30T01:46:34;-1.80;99.90
4175;DHT22;2101;48.290;14.382;2024-01-30T01:49:02;-1.90;99.90
4175;DHT22;2101;48.290;14.382;2024-01-30T01:51:31;-1.90;99.90
4175;DHT22;2101;48.290;14.382;2024-01-30T01:53:58;-1.90;99.90
4175;DHT22;2101;48.290;14.382;2024-01-30T01:56:27;-1.90;99.90
4175;DHT22;2101;48.290;14.382;2024-01-30T01:58:55;-1.90;99.90
4175;DHT22;2101;48.290;14.382;2024-01-30T02:01:21;-1.90;99.90
4175;DHT22;2101;48.290;14.382;2024-01-30T02:03:48;-1.90;99.90
4175;DHT22;2101;48.290;14.382;2024-01-30T02:06:15;-2.00;99.90
4175;DHT22;2101;48.290;14.382;2024-01-30T02:08:41;-2.00;99.90
4175;DHT22;2101;48.290;14.382;2024-01-30T02:11:08;-2.00;99.90
4175;DHT22;2101;48.290;14.382;2024-01-30T02:13:36;-2.00;99.90
4175;DHT22;2101;48.290;14.382;2024-01-30T02:16:02;-1.90;99.90
4175;DHT22;2101;48.290;14.382;2024-01-30T02:18:28;-1.90;99.90
4175;DHT22;2101;48.290;14.382;2024-01-30T02:20:56;-2.00;99.90
4175;DHT22;2101;48.290;14.382;2024-01-30T02:23:24;-2.00;99.90
4175;DHT22;2101;48.290;14.382;2024-01-30T02:25:53;-2.00;99.90
4175;DHT22;2101;48.290;14.382;2024-01-30T02:28:19;-2.00;99.90
4175;DHT22;2101;48.290;14.382;2024-01-30T02:30:46;-2.00;99.90
4175;DHT22;2101;48.290;14.382;2024-01-30T02:33:13;-2.00;99.90
4175;DHT22;2101;48.290;14.382;2024-01-30T02:35:39;-1.90;99.90
4175;DHT22;2101;48.290;14.382;2024-01-30T02:38:04;-1.90;99.90
4175;DHT22;2101;48.290;14.382;2024-01-30T02:40:31;-1.90;99.90
4175;DHT22;2101;48.290;14.382;2024-01-30T02:42:58;-1.90;99.90
4175;DHT22;2101;48.290;14.382;2024-01-30T02:45:24;-1.90;99.90
4175;DHT22;2101;48.290;14.382;2024-01-30T02:47:50;-1.90;99.90
4175;DHT22;2101;48.290;14.382;2024-01-30T02:50:16;-1.90;99.90
4175;DHT22;2101;48.290;14.382;2024-01-30T02:52:42;-1.90;99.90
4175;DHT22;2101;48.290;14.382;2024-01-30T02:55:11;-1.90;99.90
4175;DHT22;2101;48.290;14.382;2024-01-30T02:57:38;-1.90;99.90
4175;DHT22;2101;48.290;14.382;2024-01-30T03:00:04;-1.90;99.90
4175;DHT22;2101;48.290;14.382;2024-01-30T03:02:32;-1.90;99.90
4175;DHT22;2101;48.290;14.382;2024-01-30T03:04:59;-2.00;99.90
4175;DHT22;2101;48.290;14.382;2024-01-30T03:07:25;-2.00;99.90
4175;DHT22;2101;48.290;14.382;2024-01-30T03:09:51;-1.90;99.90
4175;DHT22;2101;48.290;14.382;2024-01-30T03:12:17;-2.00;99.90
4175;DHT22;2101;48.290;14.382;2024-01-30T03:14:42;-2.00;99.90
4175;DHT22;2101;48.290;14.382;2024-01-30T03:17:08;-2.00;99.90
4175;DHT22;2101;48.290;14.382;2024-01-30T03:19:34;-2.10;99.90
4175;DHT22;2101;48.290;14.382;2024-01-30T03:22:00;-2.10;99.90
4175;DHT22;2101;48.290;14.382;2024-01-30T03:24:26;-2.00;99.90
4175;DHT22;2101;48.290;14.382;2024-01-30T03:26:52;-2.00;99.90
4175;DHT22;2101;48.290;14.382;2024-01-30T03:29:18;-2.00;99.90
4175;DHT22;2101;48.290;14.382;2024-01-30T03:31:44;-2.10;99.90
4175;DHT22;2101;48.290;14.382;2024-01-30T03:34:10;-2.10;99.90
4175;DHT22;2101;48.290;14.382;2024-01-30T03:36:36;-2.10;99.90
4175;DHT22;2101;48.290;14.382;2024-01-30T03:39:02;-2.10;99.90
4175;DHT22;2101;48.290;14.382;2024-01-30T03:41:28;-2.10;99.90
4175;DHT22;2101;48.290;14.382;2024-01-30T03:43:54;-2.10;99.90
4175;DHT22;2101;48.290;14.382;2024-01-30T03:46:19;-2.10;99.90
4175;DHT22;2101;48.290;14.382;2024-01-30T03:48:45;-2.10;99.90
4175;DHT22;2101;48.290;14.382;2024-01-30T03:51:11;-2.10;99.90
4175;DHT22;2101;48.290;14.382;2024-01-30T03:53:42;-2.10;99.90
4175;DHT22;2101;48.290;14.382;2024-01-30T03:56:08;-2.10;99.90
4175;DHT22;2101;48.290;14.382;2024-01-30T03:58:35;-2.20;99.90
4175;DHT22;2101;48.290;14.382;2024-01-30T04:01:00;-2.20;99.90
4175;DHT22;2101;48.290;14.382;2024-01-30T04:03:26;-2.10;99.90
4175;DHT22;2101;48.290;14.382;2024-01-30T04:05:53;-2.20;99.90
4175;DHT22;2101;48.290;14.382;2024-01-30T04:08:19;-2.20;99.90
4175;DHT22;2101;48.290;14.382;2024-01-30T04:10:45;-2.10;99.90
4175;DHT22;2101;48.290;14.382;2024-01-30T04:13:11;-2.20;99.90
4175;DHT22;2101;48.290;14.382;2024-01-30T04:15:37;-2.10;99.90
4175;DHT22;2101;48.290;14.382;2024-01-30T04:18:03;-2.10;99.90
4175;DHT22;2101;48.290;14.382;2024-01-30T04:20:30;-2.20;99.90
4175;DHT22;2101;48.290;14.382;2024-01-30T04:22:56;-2.20;99.90
4175;DHT22;2101;48.290;14.382;2024-01-30T04:25:22;-2.20;99.90
4175;DHT22;2101;48.290;14.382;2024-01-30T04:27:48;-2.20;99.90
4175;DHT22;2101;48.290;14.382;2024-01-30T04:30:14;-2.30;99.90
4175;DHT22;2101;48.290;14.382;2024-01-30T04:32:40;-2.30;99.90
4175;DHT22;2101;48.290;14.382;2024-01-30T04:35:06;-2.30;99.90
4175;DHT22;2101;48.290;14.382;2024-01-30T04:37:32;-2.20;99.90
4175;DHT22;2101;48.290;14.382;2024-01-30T04:39:58;-2.30;99.90
4175;DHT22;2101;48.290;14.382;2024-01-30T04:42:23;-2.20;99.90
4175;DHT22;2101;48.290;14.382;2024-01-30T04:44:50;-2.20;99.90
4175;DHT22;2101;48.290;14.382;2024-01-30T04:47:16;-2.20;99.90
4175;DHT22;2101;48.290;14.382;2024-01-30T04:49:42;-2.20;99.90
4175;DHT22;2101;48.290;14.382;2024-01-30T04:52:08;-2.20;99.90
4175;DHT22;2101;48.290;14.382;2024-01-30T04:54:35;-2.20;99.90
4175;DHT22;2101;48.290;14.382;2024-01-30T04:57:01;-2.30;99.90
4175;DHT22;2101;48.290;14.382;2024-01-30T04:59:28;-2.30;99.90
4175;DHT22;2101;48.290;14.382;2024-01-30T05:01:54;-2.40;99.90
4175;DHT22;2101;48.290;14.382;2024-01-30T05:04:20;-2.40;99.90
4175;DHT22;2101;48.290;14.382;2024-01-30T05:06:46;-2.40;99.90
4175;DHT22;2101;48.290;14.382;2024-01-30T05:09:12;-2.40;99.90
4175;DHT22;2101;48.290;14.382;2024-01-30T05:11:39;-2.40;99.90
4175;DHT22;2101;48.290;14.382;2024-01-30T05:14:05;-2.40;99.90
4175;DHT22;2101;48.290;14.382;2024-01-30T05:16:32;-2.40;99.90
4175;DHT22;2101;48.290;14.382;2024-01-30T05:18:58;-2.40;99.90
4175;DHT22;2101;48.290;14.382;2024-01-30T05:21:24;-2.40;99.90
4175;DHT22;2101;48.290;14.382;2024-01-30T05:23:50;-2.40;99.90
4175;DHT22;2101;48.290;14.382;2024-01-30T05:26:16;-2.40;99.90
4175;DHT22;2101;48.290;14.382;2024-01-30T05:28:42;-2.50;99.90
4175;DHT22;2101;48.290;14.382;2024-01-30T05:31:10;-2.40;99.90
4175;DHT22;2101;48.290;14.382;2024-01-30T05:33:39;-2.40;99.90
4175;DHT22;2101;48.290;14.382;2024-01-30T05:36:06;-2.50;99.90
4175;DHT22;2101;48.290;14.382;2024-01-30T05:38:32;-2.50;99.90
4175;DHT22;2101;48.290;14.382;2024-01-30T05:40:58;-2.40;99.90
4175;DHT22;2101;48.290;14.382;2024-01-30T05:43:24;-2.50;99.90
4175;DHT22;2101;48.290;14.382;2024-01-30T05:45:51;-2.50;99.90
4175;DHT22;2101;48.290;14.382;2024-01-30T05:48:17;-2.50;99.90
4175;DHT22;2101;48.290;14.382;2024-01-30T05:50:43;-2.50;99.90
4175;DHT22;2101;48.290;14.382;2024-01-30T05:53:10;-2.60;99.90
4175;DHT22;2101;48.290;14.382;2024-01-30T05:55:36;-2.50;99.90
4175;DHT22;2101;48.290;14.382;2024-01-30T05:58:02;-2.60;99.90
4175;DHT22;2101;48.290;14.382;2024-01-30T06:00:29;-2.60;99.90
4175;DHT22;2101;48.290;14.382;2024-01-30T06:02:55;-2.70;99.90
4175;DHT22;2101;48.290;14.382;2024-01-30T06:05:21;-2.70;99.90
4175;DHT22;2101;48.290;14.382;2024-01-30T06:07:47;-2.70;99.90
4175;DHT22;2101;48.290;14.382;2024-01-30T06:10:12;-2.70;99.90
4175;DHT22;2101;48.290;14.382;2024-01-30T06:12:39;-2.70;99.90
4175;DHT22;2101;48.290;14.382;2024-01-30T06:15:05;-2.70;99.90
4175;DHT22;2101;48.290;14.382;2024-01-30T06:17:32;-2.80;99.90
4175;DHT22;2101;48.290;14.382;2024-01-30T06:19:58;-2.80;99.90
4175;DHT22;2101;48.290;14.382;2024-01-30T06:22:25;-2.80;99.90
4175;DHT22;2101;48.290;14.382;2024-01-30T06:24:50;-2.90;99.90
4175;DHT22;2101;48.290;14.382;2024-01-30T06:27:16;-2.90;99.90
4175;DHT22;2101;48.290;14.382;2024-01-30T06:29:43;-2.90;99.90
4175;DHT22;2101;48.290;14.382;2024-01-30T06:32:09;-2.90;99.90
4175;DHT22;2101;48.290;14.382;2024-01-30T06:34:35;-2.80;99.90
4175;DHT22;2101;48.290;14.382;2024-01-30T06:37:01;-2.80;99.90
4175;DHT22;2101;48.290;14.382;2024-01-30T06:39:28;-2.80;99.90
4175;DHT22;2101;48.290;14.382;2024-01-30T06:41:53;-2.80;99.90
4175;DHT22;2101;48.290;14.382;2024-01-30T06:44:19;-2.80;99.90
4175;DHT22;2101;48.290;14.382;2024-01-30T06:46:45;-2.80;99.90
4175;DHT22;2101;48.290;14.382;2024-01-30T06:49:11;-2.70;99.90
4175;DHT22;2101;48.290;14.382;2024-01-30T06:51:37;-2.80;99.90
4175;DHT22;2101;48.290;14.382;2024-01-30T06:54:03;-2.80;99.90
4175;DHT22;2101;48.290;14.382;2024-01-30T06:56:30;-2.80;99.90
4175;DHT22;2101;48.290;14.382;2024-01-30T06:58:56;-2.70;99.90
4175;DHT22;2101;48.290;14.382;2024-01-30T07:01:28;-2.70;99.90
4175;DHT22;2101;48.290;14.382;2024-01-30T07:03:54;-2.70;99.90
4175;DHT22;2101;48.290;14.382;2024-01-30T07:06:20;-2.70;99.90
4175;DHT22;2101;48.290;14.382;2024-01-30T07:08:48;-2.70;99.90
4175;DHT22;2101;48.290;14.382;2024-01-30T07:11:21;-2.70;99.90
4175;DHT22;2101;48.290;14.382;2024-01-30T07:13:48;-2.60;99.90
4175;DHT22;2101;48.290;14.382;2024-01-30T07:16:15;-2.60;99.90
4175;DHT22;2101;48.290;14.382;2024-01-30T07:18:41;-2.50;99.90
4175;DHT22;2101;48.290;14.382;2024-01-30T07:21:07;-2.40;99.90
4175;DHT22;2101;48.290;14.382;2024-01-30T07:23:33;-2.40;99.90
4175;DHT22;2101;48.290;14.382;2024-01-30T07:26:01;-2.30;99.90
4175;DHT22;2101;48.290;14.382;2024-01-30T07:28:27;-2.30;99.90
4175;DHT22;2101;48.290;14.382;2024-01-30T07:30:53;-2.20;99.90
4175;DHT22;2101;48.290;14.382;2024-01-30T07:33:19;-2.20;99.90
4175;DHT22;2101;48.290;14.382;2024-01-30T07:35:46;-2.10;99.90
4175;DHT22;2101;48.290;14.382;2024-01-30T07:38:12;-2.00;99.90
4175;DHT22;2101;48.290;14.382;2024-01-30T07:40:37;-2.00;99.90
4175;DHT22;2101;48.290;14.382;2024-01-30T07:43:03;-1.90;99.90
4175;DHT22;2101;48.290;14.382;2024-01-30T07:45:29;-1.80;99.90
4175;DHT22;2101;48.290;14.382;2024-01-30T07:47:59;-1.70;99.90
4175;DHT22;2101;48.290;14.382;2024-01-30T07:50:27;-1.60;99.90
4175;DHT22;2101;48.290;14.382;2024-01-30T07:52:55;-1.50;99.90
4175;DHT22;2101;48.290;14.382;2024-01-30T07:55:21;-1.40;99.90
4175;DHT22;2101;48.290;14.382;2024-01-30T07:57:53;-1.40;99.90
4175;DHT22;2101;48.290;14.382;2024-01-30T08:00:20;-1.30;99.90
4175;DHT22;2101;48.290;14.382;2024-01-30T08:02:46;-1.30;99.90
4175;DHT22;2101;48.290;14.382;2024-01-30T08:05:12;-1.10;99.90
4175;DHT22;2101;48.290;14.382;2024-01-30T08:07:40;-1.00;99.90
4175;DHT22;2101;48.290;14.382;2024-01-30T08:10:06;-1.10;99.90
4175;DHT22;2101;48.290;14.382;2024-01-30T08:12:32;-1.10;99.90
4175;DHT22;2101;48.290;14.382;2024-01-30T08:14:58;-1.20;99.90
4175;DHT22;2101;48.290;14.382;2024-01-30T08:17:23;-1.20;99.90
4175;DHT22;2101;48.290;14.382;2024-01-30T08:19:49;-1.20;99.90
4175;DHT22;2101;48.290;14.382;2024-01-30T08:22:15;-1.30;99.90
4175;DHT22;2101;48.290;14.382;2024-01-30T08:24:41;-1.10;99.90
4175;DHT22;2101;48.290;14.382;2024-01-30T08:27:07;-1.10;99.90
4175;DHT22;2101;48.290;14.382;2024-01-30T08:29:36;-1.10;99.90
4175;DHT22;2101;48.290;14.382;2024-01-30T08:32:02;-1.00;99.90
4175;DHT22;2101;48.290;14.382;2024-01-30T08:34:28;-1.00;99.90
4175;DHT22;2101;48.290;14.382;2024-01-30T08:36:54;-0.90;99.90
4175;DHT22;2101;48.290;14.382;2024-01-30T08:39:19;-0.80;99.90
4175;DHT22;2101;48.290;14.382;2024-01-30T08:41:48;-0.70;99.90
4175;DHT22;2101;48.290;14.382;2024-01-30T08:44:14;-0.70;99.90
4175;DHT22;2101;48.290;14.382;2024-01-30T08:46:40;-0.60;99.90
4175;DHT22;2101;48.290;14.382;2024-01-30T08:49:06;-0.50;99.90
4175;DHT22;2101;48.290;14.382;2024-01-30T08:51:31;-0.40;99.90
4175;DHT22;2101;48.290;14.382;2024-01-30T08:53:57;-0.40;99.90
4175;DHT22;2101;48.290;14.382;2024-01-30T08:56:23;-0.30;99.90
4175;DHT22;2101;48.290;14.382;2024-01-30T08:58:49;-0.50;99.90
4175;DHT22;2101;48.290;14.382;2024-01-30T09:01:15;-0.50;99.90
4175;DHT22;2101;48.290;14.382;2024-01-30T09:03:42;-0.40;99.90
4175;DHT22;2101;48.290;14.382;2024-01-30T09:06:11;-0.50;99.90
4175;DHT22;2101;48.290;14.382;2024-01-30T09:08:37;-0.40;99.90
4175;DHT22;2101;48.290;14.382;2024-01-30T09:11:11;-0.30;99.90
4175;DHT22;2101;48.290;14.382;2024-01-30T09:13:37;-0.40;99.90
4175;DHT22;2101;48.290;14.382;2024-01-30T09:16:03;-0.70;99.90
4175;DHT22;2101;48.290;14.382;2024-01-30T09:18:29;-0.60;99.90
4175;DHT22;2101;48.290;14.382;2024-01-30T09:20:55;-0.50;99.90
4175;DHT22;2101;48.290;14.382;2024-01-30T09:23:21;-0.50;99.90
4175;DHT22;2101;48.290;14.382;2024-01-30T09:25:47;-0.40;99.90
4175;DHT22;2101;48.290;14.382;2024-01-30T09:28:14;-0.60;99.90
4175;DHT22;2101;48.290;14.382;2024-01-30T09:30:40;-0.60;99.90
4175;DHT22;2101;48.290;14.382;2024-01-30T09:33:06;-0.60;99.90
4175;DHT22;2101;48.290;14.382;2024-01-30T09:35:32;-0.80;99.90
4175;DHT22;2101;48.290;14.382;2024-01-30T09:37:59;-0.60;99.90
4175;DHT22;2101;48.290;14.382;2024-01-30T09:40:25;-0.50;99.90
4175;DHT22;2101;48.290;14.382;2024-01-30T09:42:51;-0.40;99.90
4175;DHT22;2101;48.290;14.382;2024-01-30T09:45:24;-0.60;99.90
4175;DHT22;2101;48.290;14.382;2024-01-30T09:47:50;-0.70;99.90
4175;DHT22;2101;48.290;14.382;2024-01-30T09:50:16;-0.60;99.90
4175;DHT22;2101;48.290;14.382;2024-01-30T09:52:46;-0.40;99.90
4175;DHT22;2101;48.290;14.382;2024-01-30T09:55:13;-0.40;99.90
4175;DHT22;2101;48.290;14.382;2024-01-30T09:57:39;-0.40;99.90
4175;DHT22;2101;48.290;14.382;2024-01-30T10:00:06;-0.40;99.90
4175;DHT22;2101;48.290;14.382;2024-01-30T10:02:38;-0.50;99.90
4175;DHT22;2101;48.290;14.382;2024-01-30T10:05:05;-0.60;99.90
4175;DHT22;2101;48.290;14.382;2024-01-30T10:07:31;-0.60;99.90
4175;DHT22;2101;48.290;14.382;2024-01-30T10:09:57;-0.50;99.90
4175;DHT22;2101;48.290;14.382;2024-01-30T10:12:25;-0.40;99.90
4175;DHT22;2101;48.290;14.382;2024-01-30T10:14:56;-0.30;99.90
4175;DHT22;2101;48.290;14.382;2024-01-30T10:17:25;-0.40;99.90
4175;DHT22;2101;48.290;14.382;2024-01-30T10:19:52;-0.60;99.90
4175;DHT22;2101;48.290;14.382;2024-01-30T10:22:17;-0.60;99.90
4175;DHT22;2101;48.290;14.382;2024-01-30T10:24:44;-0.40;99.90
4175;DHT22;2101;48.290;14.382;2024-01-30T10:27:11;-0.30;99.90
4175;DHT22;2101;48.290;14.382;2024-01-30T10:29:37;0.00;99.90
4175;DHT22;2101;48.290;14.382;2024-01-30T10:32:04;0.20;99.90
4175;DHT22;2101;48.290;14.382;2024-01-30T10:34:31;0.20;99.90
4175;DHT22;2101;48.290;14.382;2024-01-30T10:37:08;0.20;99.90
4175;DHT22;2101;48.290;14.382;2024-01-30T10:39:41;0.10;99.90
4175;DHT22;2101;48.290;14.382;2024-01-30T10:42:12;0.00;99.90
4175;DHT22;2101;48.290;14.382;2024-01-30T10:47:15;-0.10;99.90
4175;DHT22;2101;48.290;14.382;2024-01-30T10:49:44;-0.20;99.90
4175;DHT22;2101;48.290;14.382;2024-01-30T10:52:13;-0.20;99.90
4175;DHT22;2101;48.290;14.382;2024-01-30T10:54:44;0.00;99.90
4175;DHT22;2101;48.290;14.382;2024-01-30T10:57:11;0.00;99.90
4175;DHT22;2101;48.290;14.382;2024-01-30T10:59:38;0.20;99.90
4175;DHT22;2101;48.290;14.382;2024-01-30T11:02:05;0.40;99.90
4175;DHT22;2101;48.290;14.382;2024-01-30T11:04:40;0.30;99.90
4175;DHT22;2101;48.290;14.382;2024-01-30T11:07:23;0.10;99.90
4175;DHT22;2101;48.290;14.382;2024-01-30T11:09:59;0.00;99.90
4175;DHT22;2101;48.290;14.382;2024-01-30T11:12:32;0.10;99.90
4175;DHT22;2101;48.290;14.382;2024-01-30T11:15:02;0.30;99.90
4175;DHT22;2101;48.290;14.382;2024-01-30T11:20:29;0.30;99.90
4175;DHT22;2101;48.290;14.382;2024-01-30T11:22:57;0.40;99.90
4175;DHT22;2101;48.290;14.382;2024-01-30T11:25:24;0.20;99.90
4175;DHT22;2101;48.290;14.382;2024-01-30T11:27:52;0.00;99.90
4175;DHT22;2101;48.290;14.382;2024-01-30T11:30:27;-0.10;99.90
4175;DHT22;2101;48.290;14.382;2024-01-30T11:33:00;0.00;99.90
4175;DHT22;2101;48.290;14.382;2024-01-30T11:35:26;0.00;99.90
4175;DHT22;2101;48.290;14.382;2024-01-30T11:37:52;0.00;99.90
4175;DHT22;2101;48.290;14.382;2024-01-30T11:40:19;-0.10;99.90
4175;DHT22;2101;48.290;14.382;2024-01-30T11:42:45;0.00;99.90
4175;DHT22;2101;48.290;14.382;2024-01-30T11:45:12;0.00;99.90
4175;DHT22;2101;48.290;14.382;2024-01-30T11:47:38;-0.10;99.90
4175;DHT22;2101;48.290;14.382;2024-01-30T11:50:05;0.00;99.90
4175;DHT22;2101;48.290;14.382;2024-01-30T11:52:33;-0.10;99.90
4175;DHT22;2101;48.290;14.382;2024-01-30T11:55:00;-0.10;99.90
4175;DHT22;2101;48.290;14.382;2024-01-30T11:57:27;-0.20;99.90
4175;DHT22;2101;48.290;14.382;2024-01-30T11:59:53;-0.10;99.90
4175;DHT22;2101;48.290;14.382;2024-01-30T12:02:18;0.00;99.90
4175;DHT22;2101;48.290;14.382;2024-01-30T12:04:47;0.30;99.90
4175;DHT22;2101;48.290;14.382;2024-01-30T12:07:13;0.50;99.90
4175;DHT22;2101;48.290;14.382;2024-01-30T12:09:42;0.60;99.90
4175;DHT22;2101;48.290;14.382;2024-01-30T12:12:08;0.30;99.90
4175;DHT22;2101;48.290;14.382;2024-01-30T12:14:39;0.30;99.90
4175;DHT22;2101;48.290;14.382;2024-01-30T12:17:05;0.60;99.90
4175;DHT22;2101;48.290;14.382;2024-01-30T12:19:31;0.70;99.90
4175;DHT22;2101;48.290;14.382;2024-01-30T12:21:58;0.70;99.90
4175;DHT22;2101;48.290;14.382;2024-01-30T12:24:27;0.60;99.90
4175;DHT22;2101;48.290;14.382;2024-01-30T12:26:59;0.50;99.90
4175;DHT22;2101;48.290;14.382;2024-01-30T12:29:25;0.40;99.90
4175;DHT22;2101;48.290;14.382;2024-01-30T12:31:54;0.50;99.90
4175;DHT22;2101;48.290;14.382;2024-01-30T12:34:21;0.40;99.90
4175;DHT22;2101;48.290;14.382;2024-01-30T12:36:50;0.40;99.90
4175;DHT22;2101;48.290;14.382;2024-01-30T12:39:16;0.30;99.90
4175;DHT22;2101;48.290;14.382;2024-01-30T12:41:41;0.20;99.90
4175;DHT22;2101;48.290;14.382;2024-01-30T12:44:08;0.20;99.90
4175;DHT22;2101;48.290;14.382;2024-01-30T12:46:37;0.50;99.90
4175;DHT22;2101;48.290;14.382;2024-01-30T12:49:02;0.50;99.90
4175;DHT22;2101;48.290;14.382;2024-01-30T12:51:28;0.70;99.90
4175;DHT22;2101;48.290;14.382;2024-01-30T12:53:54;0.50;99.90
4175;DHT22;2101;48.290;14.382;2024-01-30T12:56:20;0.40;99.90
4175;DHT22;2101;48.290;14.382;2024-01-30T12:58:46;0.40;99.90
4175;DHT22;2101;48.290;14.382;2024-01-30T13:01:12;0.60;99.90
4175;DHT22;2101;48.290;14.382;2024-01-30T13:03:38;0.40;99.90
4175;DHT22;2101;48.290;14.382;2024-01-30T13:06:04;0.40;99.90
4175;DHT22;2101;48.290;14.382;2024-01-30T13:08:30;0.40;99.90
4175;DHT22;2101;48.290;14.382;2024-01-30T13:10:56;0.80;99.90
4175;DHT22;2101;48.290;14.382;2024-01-30T13:13:22;1.00;99.90
4175;DHT22;2101;48.290;14.382;2024-01-30T13:15:48;1.00;99.90
4175;DHT22;2101;48.290;14.382;2024-01-30T13:18:14;0.90;99.90
4175;DHT22;2101;48.290;14.382;2024-01-30T13:20:40;0.90;99.90
4175;DHT22;2101;48.290;14.382;2024-01-30T13:23:06;0.80;99.90
4175;DHT22;2101;48.290;14.382;2024-01-30T13:25:32;0.90;99.90
4175;DHT22;2101;48.290;14.382;2024-01-30T13:27:58;0.70;99.90
4175;DHT22;2101;48.290;14.382;2024-01-30T13:30:24;0.80;99.90
4175;DHT22;2101;48.290;14.382;2024-01-30T13:32:50;0.60;99.90
4175;DHT22;2101;48.290;14.382;2024-01-30T13:35:15;0.70;99.90
4175;DHT22;2101;48.290;14.382;2024-01-30T13:37:41;0.50;99.90
4175;DHT22;2101;48.290;14.382;2024-01-30T13:40:08;0.40;99.90
4175;DHT22;2101;48.290;14.382;2024-01-30T13:42:34;0.10;99.90
4175;DHT22;2101;48.290;14.382;2024-01-30T13:45:00;0.20;99.90
4175;DHT22;2101;48.290;14.382;2024-01-30T13:47:26;0.30;99.90
4175;DHT22;2101;48.290;14.382;2024-01-30T13:49:52;0.30;99.90
4175;DHT22;2101;48.290;14.382;2024-01-30T13:52:18;0.00;99.90
4175;DHT22;2101;48.290;14.382;2024-01-30T13:54:44;0.10;99.90
4175;DHT22;2101;48.290;14.382;2024-01-30T13:57:10;0.10;99.90
4175;DHT22;2101;48.290;14.382;2024-01-30T13:59:38;0.00;99.90
4175;DHT22;2101;48.290;14.382;2024-01-30T14:02:04;0.10;99.90
4175;DHT22;2101;48.290;14.382;2024-01-30T14:04:31;0.00;99.90
4175;DHT22;2101;48.290;14.382;2024-01-30T14:06:57;0.00;99.90
4175;DHT22;2101;48.290;14.382;2024-01-30T14:09:22;0.00;99.90
4175;DHT22;2101;48.290;14.382;2024-01-30T14:11:48;-0.10;99.90
4175;DHT22;2101;48.290;14.382;2024-01-30T14:14:14;0.00;99.90
4175;DHT22;2101;48.290;14.382;2024-01-30T14:16:40;0.00;99.90
4175;DHT22;2101;48.290;14.382;2024-01-30T14:19:06;0.20;99.90
4175;DHT22;2101;48.290;14.382;2024-01-30T14:21:32;0.10;99.90
4175;DHT22;2101;48.290;14.382;2024-01-30T14:23:58;0.00;99.90
4175;DHT22;2101;48.290;14.382;2024-01-30T14:26:24;0.20;99.90
4175;DHT22;2101;48.290;14.382;2024-01-30T14:28:50;0.20;99.90
4175;DHT22;2101;48.290;14.382;2024-01-30T14:31:15;0.30;99.90
4175;DHT22;2101;48.290;14.382;2024-01-30T14:33:44;0.20;99.90
4175;DHT22;2101;48.290;14.382;2024-01-30T14:36:10;0.30;99.90
4175;DHT22;2101;48.290;14.382;2024-01-30T14:38:36;0.30;99.90
4175;DHT22;2101;48.290;14.382;2024-01-30T14:41:01;0.10;99.90
4175;DHT22;2101;48.290;14.382;2024-01-30T14:43:27;0.10;99.90
4175;DHT22;2101;48.290;14.382;2024-01-30T14:45:53;-0.10;99.90
4175;DHT22;2101;48.290;14.382;2024-01-30T14:48:19;-0.20;99.90
4175;DHT22;2101;48.290;14.382;2024-01-30T14:50:45;-0.30;99.90
4175;DHT22;2101;48.290;14.382;2024-01-30T14:53:11;-0.10;99.90
4175;DHT22;2101;48.290;14.382;2024-01-30T14:55:37;-0.20;99.90
4175;DHT22;2101;48.290;14.382;2024-01-30T14:58:03;-0.30;99.90
4175;DHT22;2101;48.290;14.382;2024-01-30T15:00:29;-0.30;99.90
4175;DHT22;2101;48.290;14.382;2024-01-30T15:02:55;-0.40;99.90
4175;DHT22;2101;48.290;14.382;2024-01-30T15:05:21;-0.30;99.90
4175;DHT22;2101;48.290;14.382;2024-01-30T15:07:47;-0.30;99.90
4175;DHT22;2101;48.290;14.382;2024-01-30T15:10:13;-0.30;99.90
4175;DHT22;2101;48.290;14.382;2024-01-30T15:12:39;-0.30;99.90
4175;DHT22;2101;48.290;14.382;2024-01-30T15:15:07;-0.30;99.90
4175;DHT22;2101;48.290;14.382;2024-01-30T15:17:33;-0.30;99.90
4175;DHT22;2101;48.290;14.382;2024-01-30T15:19:59;-0.40;99.90
4175;DHT22;2101;48.290;14.382;2024-01-30T15:22:26;-0.30;99.90
4175;DHT22;2101;48.290;14.382;2024-01-30T15:24:52;-0.40;99.90
4175;DHT22;2101;48.290;14.382;2024-01-30T15:27:18;-0.40;99.90
4175;DHT22;2101;48.290;14.382;2024-01-30T15:29:45;-0.40;99.90
4175;DHT22;2101;48.290;14.382;2024-01-30T15:32:11;-0.50;99.90
4175;DHT22;2101;48.290;14.382;2024-01-30T15:34:37;-0.50;99.90
4175;DHT22;2101;48.290;14.382;2024-01-30T15:37:03;-0.50;99.90
4175;DHT22;2101;48.290;14.382;2024-01-30T15:39:29;-0.60;99.90
4175;DHT22;2101;48.290;14.382;2024-01-30T15:41:55;-0.60;99.90
4175;DHT22;2101;48.290;14.382;2024-01-30T15:44:21;-0.50;99.90
4175;DHT22;2101;48.290;14.382;2024-01-30T15:46:47;-0.50;99.90
4175;DHT22;2101;48.290;14.382;2024-01-30T15:49:12;-0.50;99.90
4175;DHT22;2101;48.290;14.382;2024-01-30T15:51:38;-0.60;99.90